Aviation Digital Data Service (ADDS)

Output produced by METARs form (2221 UTC 01 February 2023)
found at http://www.aviationweather.gov/metar/data/
 
KSSI 012153Z AUTO 17005KT 10SM CLR 22/16 A3013 RMK AO2 SLP203 T02170161
KSSI 011747Z 0118/0218 26008KT P6SM SCT005 SCT020 
     FM011900 16010KT P6SM SCT030 BKN050 
     FM020000 VRB04KT P6SM SCT050 BKN250 
     FM020600 VRB03KT 6SM BR SCT004 BKN010 
     FM020800 01002KT 5SM BR BKN003 
     FM021000 01003KT 1/2SM FG OVC003 
     FM021500 29005KT 6SM BR BKN003 
     FM021700 22006KT P6SM SCT005 BKN050